createdAt,value
2023-02-03T00:04:28.851Z,29.3
2023-02-03T00:19:38.671Z,30.1
2023-02-03T00:34:47.892Z,29
2023-02-03T00:49:58.274Z,25.8
2023-02-03T01:05:08.469Z,25.2
2023-02-03T01:20:18.202Z,22.4
2023-02-03T01:35:27.717Z,21.2
2023-02-03T01:50:37.538Z,19.8
2023-02-03T02:05:47.713Z,16.8
2023-02-03T02:20:57.900Z,16
2023-02-03T02:36:07.621Z,15.8
2023-02-03T02:51:17.397Z,13.6
2023-02-03T03:06:27.114Z,13
2023-02-03T03:21:37.450Z,12.7
2023-02-03T03:36:47.267Z,10.3
2023-02-03T03:51:56.574Z,9.6
2023-02-03T04:07:06.172Z,8.5
2023-02-03T04:22:16.180Z,9.4
2023-02-03T04:37:25.974Z,8.6
2023-02-03T04:52:35.463Z,7.9
2023-02-03T05:07:45.209Z,7.6
2023-02-03T05:22:55.846Z,8.2
2023-02-03T05:38:05.542Z,8.6
2023-02-03T05:53:15.446Z,7.7
2023-02-03T06:08:25.149Z,7
2023-02-03T06:23:34.182Z,7.5
2023-02-03T06:38:43.932Z,8.1
2023-02-03T06:53:53.474Z,8.3
2023-02-03T07:09:02.673Z,8
2023-02-03T07:24:12.361Z,9.1
2023-02-03T07:39:22.064Z,7.9
2023-02-03T07:54:31.782Z,8.5
2023-02-03T08:09:42.182Z,9.3
2023-02-03T08:24:52.287Z,8.9
2023-02-03T08:40:02.157Z,9.2
2023-02-03T08:55:11.404Z,9.7
2023-02-03T09:10:20.892Z,8.1
2023-02-03T09:25:31.387Z,6.3
2023-02-03T09:40:41.231Z,5.9
2023-02-03T09:55:50.410Z,5.4
2023-02-03T10:11:00.716Z,4.5
2023-02-03T10:26:10.751Z,3.6
2023-02-03T10:41:21.081Z,3.8
2023-02-03T10:56:31.336Z,3.4
2023-02-03T11:11:41.056Z,4.6
2023-02-03T11:26:51.018Z,4.7
2023-02-03T11:42:00.788Z,4.9
2023-02-03T11:57:11.185Z,4.4
2023-02-03T12:12:20.561Z,4.7
2023-02-03T12:27:30.027Z,4.4
2023-02-03T12:42:40.073Z,5.3
2023-02-03T12:57:50.740Z,4.4
2023-02-03T13:13:00.287Z,6.5
2023-02-03T13:28:10.244Z,5.3
2023-02-03T13:43:39.111Z,5.2
2023-02-03T13:58:53.196Z,4.1
2023-02-03T14:14:03.283Z,4.9
2023-02-03T14:29:12.799Z,4.7
2023-02-03T14:44:22.644Z,4.3
2023-02-03T14:59:32.624Z,4.5
2023-02-03T15:14:42.304Z,4
2023-02-03T15:29:51.730Z,5
2023-02-03T15:45:01.201Z,4.2
2023-02-03T16:00:10.649Z,4.9
2023-02-03T16:15:19.914Z,5
2023-02-03T16:30:29.796Z,6.7
2023-02-03T16:45:39.661Z,6
2023-02-03T17:00:49.434Z,7.9
2023-02-03T17:15:59.739Z,6.3
2023-02-03T17:31:10.130Z,5.9
2023-02-03T18:02:44.137Z,6.5
2023-02-03T18:17:56.254Z,7.4
2023-02-03T18:33:05.857Z,5.8
2023-02-03T18:48:14.878Z,6.1
2023-02-03T19:03:24.834Z,5.9
2023-02-03T19:18:34.309Z,5.9
2023-02-03T19:33:43.867Z,5.9
2023-02-03T19:48:57.335Z,6.4
2023-02-03T20:04:07.024Z,6.1
2023-02-03T20:19:16.338Z,6.2
2023-02-03T20:34:26.101Z,5.6
2023-02-03T20:49:36.117Z,7.5
2023-02-03T21:04:45.716Z,5.4
2023-02-03T21:19:57.234Z,5.7
2023-02-03T21:35:06.620Z,6.6
2023-02-03T21:50:16.300Z,6.1
2023-02-03T22:05:25.741Z,7.1
2023-02-03T22:20:35.587Z,6.3
2023-02-03T22:35:45.724Z,5.5
2023-02-03T22:50:55.602Z,6.8
2023-02-03T23:06:05.493Z,6
2023-02-03T23:21:17.523Z,5.1
2023-02-03T23:36:27.818Z,4.8
2023-02-03T23:51:36.925Z,4.4
